Terminal Aerodrome Forecast
Issued by NWS

Home | Current Version | Previous Version | Text Only | Print | Product List | Glossary On
Versions: 1 2 3 4 5 6 7 8 9 10 11 12 13 14 15 16 17 18
000
FTUS46 KMFR 301304 AAA
TAFOTH
TAF AMD
KOTH 301304Z 3013/3112 VRB03KT 1SM BR BKN004
     FM301500 VRB03KT P6SM SCT006
     FM301700 35008KT P6SM SKC
     FM301900 36014G25KT P6SM SKC
     FM310300 36010KT P6SM SKC
     FM310600 VRB03KT 1/2SM FG OVC002=

USA.gov is the U.S. government's official web portal to all federal, state and local government web resources and services.